createdAt,value
2019-03-13T00:01:01.811Z,7.10
2019-03-13T00:03:30.377Z,7.00
2019-03-13T00:05:58.997Z,7.00
2019-03-13T00:08:27.570Z,7.10
2019-03-13T00:10:56.121Z,7.10
2019-03-13T00:13:25.069Z,7.10
2019-03-13T00:15:53.685Z,7.00
2019-03-13T00:18:22.324Z,7.00
2019-03-13T00:20:50.872Z,7.00
2019-03-13T00:23:19.451Z,7.00
2019-03-13T00:25:48.012Z,7.10
2019-03-13T00:28:16.575Z,7.10
2019-03-13T00:30:45.126Z,7.20
2019-03-13T00:33:13.681Z,7.20
2019-03-13T00:35:42.255Z,7.30
2019-03-13T00:38:10.813Z,7.30
2019-03-13T00:40:39.381Z,7.30
2019-03-13T00:43:07.937Z,7.30
2019-03-13T00:45:36.513Z,7.40
2019-03-13T00:48:05.065Z,7.40
2019-03-13T00:50:33.778Z,7.40
2019-03-13T00:53:02.403Z,7.40
2019-03-13T00:55:30.982Z,7.30
2019-03-13T00:57:59.542Z,7.30
2019-03-13T01:00:46.163Z,7.20
2019-03-13T01:03:31.436Z,7.20
2019-03-13T01:06:01.644Z,7.30
2019-03-13T01:08:30.193Z,7.30
2019-03-13T01:10:58.766Z,7.30
2019-03-13T01:13:27.313Z,7.20
2019-03-13T01:15:55.886Z,7.20
2019-03-13T01:18:24.433Z,7.20
2019-03-13T01:20:53.001Z,7.20
2019-03-13T01:23:21.558Z,7.20
2019-03-13T01:25:50.142Z,7.10
2019-03-13T01:28:18.697Z,7.10
2019-03-13T01:30:48.909Z,7.10
2019-03-13T01:33:18.533Z,7.10
2019-03-13T01:35:48.757Z,7.00
2019-03-13T01:38:17.305Z,7.00
2019-03-13T01:40:45.882Z,6.90
2019-03-13T01:43:14.432Z,6.90
2019-03-13T01:45:43.010Z,6.90
2019-03-13T01:48:11.557Z,6.90
2019-03-13T01:50:40.128Z,6.80
2019-03-13T01:53:08.692Z,6.80
2019-03-13T01:55:37.264Z,6.70
2019-03-13T01:58:05.816Z,6.60
2019-03-13T02:00:34.727Z,6.50
2019-03-13T02:03:03.280Z,6.50
2019-03-13T02:05:31.848Z,6.50
2019-03-13T02:08:00.397Z,6.50
2019-03-13T02:10:28.973Z,6.50
2019-03-13T04:38:10.434Z,4.40
2019-03-13T04:40:39.031Z,4.30
2019-03-13T04:43:07.586Z,4.30
2019-03-13T04:45:36.141Z,4.30
2019-03-13T04:48:04.713Z,4.30
2019-03-13T04:50:33.265Z,4.30
2019-03-13T04:53:01.841Z,4.30
2019-03-13T04:55:30.393Z,4.30
2019-03-13T04:57:58.978Z,4.30
2019-03-13T05:00:27.529Z,4.30
2019-03-13T05:02:56.101Z,4.30
2019-03-13T05:05:44.841Z,4.20
2019-03-13T05:08:40.525Z,4.20
2019-03-13T05:11:01.546Z,4.20
2019-03-13T05:13:30.118Z,4.30
2019-03-13T05:15:58.683Z,4.20
2019-03-13T05:18:27.253Z,4.30
2019-03-13T05:20:55.807Z,4.20
2019-03-13T05:23:24.386Z,4.10
2019-03-13T05:25:52.934Z,4.00
2019-03-13T05:28:21.506Z,4.00
2019-03-13T05:30:52.884Z,4.00
2019-03-13T05:33:20.364Z,4.00
2019-03-13T05:35:48.897Z,4.00
2019-03-13T05:38:17.479Z,4.00
2019-03-13T05:40:46.034Z,4.00
2019-03-13T05:43:14.620Z,4.00
2019-03-13T05:45:43.157Z,3.90
2019-03-13T05:48:11.729Z,3.90
2019-03-13T05:50:40.281Z,3.90
2019-03-13T05:53:08.856Z,4.00
2019-03-13T05:55:37.428Z,4.00
2019-03-13T05:58:05.985Z,4.00
2019-03-13T06:00:34.608Z,3.90
2019-03-13T06:03:03.178Z,3.80
2019-03-13T06:05:31.733Z,3.90
2019-03-13T06:08:00.308Z,4.00
2019-03-13T06:10:28.853Z,4.10
2019-03-13T06:12:57.425Z,4.10
2019-03-13T06:15:26.047Z,4.10
2019-03-13T06:17:54.617Z,4.10
2019-03-13T06:20:23.170Z,4.00
2019-03-13T06:22:51.741Z,3.90
2019-03-13T06:25:20.303Z,3.80
2019-03-13T06:27:48.872Z,3.70
2019-03-13T06:30:18.766Z,3.70
2019-03-13T06:32:47.340Z,3.60
2019-03-13T06:35:15.989Z,3.60
2019-03-13T06:37:44.621Z,3.60
2019-03-13T06:40:18.225Z,3.70
2019-03-13T06:42:46.796Z,3.70
2019-03-13T06:45:16.190Z,3.80
2019-03-13T06:47:44.772Z,3.90
2019-03-13T06:50:21.616Z,4.00
2019-03-13T06:52:50.202Z,4.20
2019-03-13T06:55:18.795Z,4.20
2019-03-13T06:57:47.368Z,4.20
2019-03-13T07:00:20.633Z,4.30
2019-03-13T07:02:53.517Z,4.50
2019-03-13T07:05:29.688Z,4.50
2019-03-13T07:08:11.625Z,4.50
2019-03-13T07:10:41.822Z,4.60
2019-03-13T07:13:12.041Z,4.50
2019-03-13T07:15:44.922Z,4.50
2019-03-13T07:18:15.138Z,4.60
2019-03-13T07:20:45.338Z,4.60
2019-03-13T07:23:18.342Z,4.80
2019-03-13T07:25:51.329Z,4.90
2019-03-13T07:28:33.550Z,5.10
2019-03-13T07:31:03.761Z,5.10
2019-03-13T07:33:50.154Z,5.20
2019-03-13T07:36:32.250Z,5.20
2019-03-13T07:39:14.729Z,5.30
2019-03-13T07:42:00.224Z,5.40
2019-03-13T07:44:42.266Z,5.40
2019-03-13T07:47:21.006Z,5.50
2019-03-13T07:49:54.193Z,5.40
2019-03-13T07:52:32.829Z,5.40
2019-03-13T07:55:02.166Z,5.40
2019-03-13T07:57:32.415Z,5.40
2019-03-13T08:00:05.286Z,5.50
2019-03-13T08:02:41.489Z,5.70
2019-03-13T08:05:18.218Z,5.50
2019-03-13T08:08:06.458Z,5.40
2019-03-13T08:10:51.720Z,5.50
2019-03-13T08:13:24.586Z,5.60
2019-03-13T08:16:12.946Z,5.70
2019-03-13T08:18:43.182Z,5.70
2019-03-13T08:21:19.378Z,5.90
2019-03-13T08:24:05.702Z,6.10
2019-03-13T08:26:54.281Z,6.30
2019-03-13T08:29:36.450Z,6.30
2019-03-13T08:32:06.648Z,6.40
2019-03-13T08:34:36.857Z,6.60
2019-03-13T08:37:07.045Z,6.70
2019-03-13T08:39:46.258Z,6.60
2019-03-13T08:42:16.773Z,6.50
2019-03-13T08:45:03.100Z,6.60
2019-03-13T08:47:45.305Z,6.40
2019-03-13T08:50:15.653Z,6.30
2019-03-13T08:52:45.848Z,6.50
2019-03-13T08:55:31.145Z,6.80
2019-03-13T08:58:01.360Z,6.90
2019-03-13T09:00:37.210Z,7.00
2019-03-13T09:03:10.101Z,7.00
2019-03-13T09:05:49.431Z,7.10
2019-03-13T09:08:22.309Z,7.20
2019-03-13T09:10:52.538Z,7.00
2019-03-13T09:13:22.761Z,7.20
2019-03-13T09:15:52.939Z,7.10
2019-03-13T09:18:39.341Z,7.20
2019-03-13T09:21:09.534Z,7.30
2019-03-13T09:23:45.554Z,7.20
2019-03-13T09:26:21.201Z,7.10
2019-03-13T09:28:57.103Z,7.20
2019-03-13T09:31:29.947Z,7.10
2019-03-13T09:34:00.162Z,6.80
2019-03-13T09:36:30.362Z,6.80
2019-03-13T09:39:17.095Z,6.90
2019-03-13T09:41:50.332Z,7.10
2019-03-13T09:44:26.819Z,6.90
2019-03-13T09:46:57.009Z,6.90
2019-03-13T09:49:32.954Z,6.90
2019-03-13T09:52:15.193Z,7.10
2019-03-13T09:54:54.433Z,7.20
2019-03-13T09:57:40.954Z,7.30
2019-03-13T10:00:17.434Z,7.10
2019-03-13T10:03:04.082Z,7.00
2019-03-13T10:05:37.293Z,6.80
2019-03-13T10:08:10.409Z,6.90
2019-03-13T10:10:46.350Z,6.80
2019-03-13T10:13:19.149Z,6.90
2019-03-13T10:15:58.331Z,6.90
2019-03-13T10:18:31.199Z,7.00
2019-03-13T10:21:13.457Z,7.10
2019-03-13T10:23:43.662Z,7.30
2019-03-13T10:26:20.870Z,7.50
2019-03-13T10:28:56.979Z,7.30
2019-03-13T10:31:30.146Z,7.50
2019-03-13T10:34:16.745Z,7.40
2019-03-13T10:36:55.954Z,7.50
2019-03-13T10:39:31.915Z,7.50
2019-03-13T10:42:14.305Z,7.50
2019-03-13T10:44:44.520Z,7.50
2019-03-13T10:47:14.791Z,7.40
2019-03-13T10:49:45.049Z,7.40
2019-03-13T10:52:21.026Z,7.30
2019-03-13T10:55:03.481Z,7.40
2019-03-13T10:57:39.857Z,7.30
2019-03-13T11:00:13.144Z,7.30
2019-03-13T11:02:46.134Z,7.40
2019-03-13T11:05:25.626Z,7.30
2019-03-13T11:08:04.823Z,7.40
2019-03-13T11:10:44.212Z,7.40
2019-03-13T11:13:17.210Z,7.40
2019-03-13T11:15:50.075Z,7.10
2019-03-13T11:18:26.229Z,6.90
2019-03-13T11:21:05.760Z,6.60
2019-03-13T11:23:42.011Z,6.40
2019-03-13T11:26:14.872Z,5.90
2019-03-13T11:28:50.725Z,5.80
2019-03-13T11:31:35.854Z,6.00
2019-03-13T11:34:18.346Z,6.30
2019-03-13T11:37:03.614Z,6.40
2019-03-13T11:39:36.496Z,6.70
2019-03-13T11:42:06.790Z,6.90
2019-03-13T11:44:42.696Z,7.20
2019-03-13T11:47:15.421Z,7.30
2019-03-13T11:49:45.609Z,7.40
2019-03-13T11:52:15.831Z,7.60
2019-03-13T11:54:46.030Z,7.50
2019-03-13T11:57:16.229Z,7.50
2019-03-13T12:00:03.173Z,7.50
2019-03-13T12:02:45.358Z,7.80
2019-03-13T12:05:18.382Z,7.50
2019-03-13T12:08:06.488Z,7.20
2019-03-13T12:10:36.681Z,7.30
2019-03-13T12:13:06.898Z,7.40
2019-03-13T12:15:39.826Z,7.50
2019-03-13T12:18:10.082Z,7.40
2019-03-13T12:20:59.285Z,7.30
2019-03-13T12:23:34.861Z,7.40
2019-03-13T12:26:08.327Z,7.50
2019-03-13T12:28:38.522Z,7.60
2019-03-13T12:31:25.300Z,7.70
2019-03-13T12:34:04.426Z,7.90
2019-03-13T12:36:37.366Z,8.00
2019-03-13T12:39:08.708Z,7.90
2019-03-13T12:41:44.791Z,8.00
2019-03-13T12:44:17.634Z,8.00
2019-03-13T12:47:02.903Z,8.00
2019-03-13T12:49:45.116Z,8.10
2019-03-13T12:52:18.277Z,8.30
2019-03-13T12:54:50.900Z,8.10
2019-03-13T12:57:21.118Z,8.20
2019-03-13T13:00:03.601Z,8.00
2019-03-13T13:02:33.841Z,7.80
2019-03-13T13:05:12.994Z,7.80
2019-03-13T13:08:01.373Z,7.80
2019-03-13T13:10:31.571Z,7.90
2019-03-13T13:13:01.788Z,7.90
2019-03-13T13:15:38.145Z,8.00
2019-03-13T13:18:08.430Z,8.10
2019-03-13T13:20:36.981Z,8.20
2019-03-13T13:23:05.561Z,8.20
2019-03-13T13:25:34.113Z,8.30
2019-03-13T13:28:02.685Z,8.30
2019-03-13T13:30:31.237Z,8.30
2019-03-13T13:32:59.809Z,8.40
2019-03-13T13:35:28.356Z,8.30
2019-03-13T13:37:56.943Z,8.00
2019-03-13T13:40:25.498Z,8.10
2019-03-13T13:42:54.074Z,8.00
2019-03-13T13:45:34.809Z,8.00
2019-03-13T13:48:03.390Z,7.90
2019-03-13T13:50:31.945Z,7.90
2019-03-13T13:53:00.565Z,7.90
2019-03-13T13:55:29.143Z,7.80
2019-03-13T13:57:57.699Z,7.90
2019-03-13T14:00:26.266Z,7.80
2019-03-13T14:02:54.822Z,7.90
2019-03-13T14:05:23.402Z,7.90
2019-03-13T14:07:51.950Z,8.00
2019-03-13T14:10:20.524Z,8.00
2019-03-13T14:12:49.075Z,8.10
2019-03-13T14:15:17.652Z,8.00
2019-03-13T14:17:46.196Z,7.90
2019-03-13T14:20:15.508Z,8.00
2019-03-13T14:22:44.064Z,8.00
2019-03-13T14:25:14.179Z,7.90
2019-03-13T14:27:42.740Z,7.90
2019-03-13T14:30:16.574Z,7.80
2019-03-13T14:32:45.125Z,7.70
2019-03-13T14:35:13.703Z,7.70
2019-03-13T14:37:42.248Z,7.70
2019-03-13T14:40:18.777Z,7.70
2019-03-13T14:42:47.329Z,7.80
2019-03-13T14:45:19.782Z,7.90
2019-03-13T14:47:48.334Z,7.70
2019-03-13T14:50:19.373Z,7.60
2019-03-13T14:52:48.074Z,7.70
2019-03-13T14:55:18.006Z,7.70
2019-03-13T14:57:46.553Z,7.60
2019-03-13T15:00:25.182Z,7.50
2019-03-13T15:02:53.813Z,7.50
2019-03-13T15:05:22.563Z,7.40
2019-03-13T15:07:51.281Z,7.30
2019-03-13T15:10:20.944Z,7.30
2019-03-13T15:12:51.019Z,7.40
2019-03-13T15:15:22.665Z,7.20
2019-03-13T15:17:53.220Z,7.30
2019-03-13T15:20:24.312Z,7.20
2019-03-13T15:22:52.909Z,7.20
2019-03-13T15:25:21.548Z,7.30
2019-03-13T15:27:50.097Z,7.20
2019-03-13T15:30:26.337Z,7.00
2019-03-13T15:32:54.913Z,7.10
2019-03-13T15:35:23.484Z,7.00
2019-03-13T15:37:52.042Z,6.90
2019-03-13T15:40:20.746Z,6.90
2019-03-13T15:42:49.361Z,7.00
2019-03-13T15:45:26.005Z,7.10
2019-03-13T15:47:54.554Z,7.20
2019-03-13T15:50:23.130Z,7.10
2019-03-13T15:52:51.761Z,7.20
2019-03-13T15:55:20.874Z,7.30
2019-03-13T15:57:49.439Z,7.30
2019-03-13T16:00:23.429Z,7.20
2019-03-13T16:02:55.217Z,7.30
2019-03-13T16:05:22.290Z,7.20
2019-03-13T16:07:50.842Z,7.20
2019-03-13T16:10:20.554Z,7.10
2019-03-13T16:12:49.251Z,7.00
2019-03-13T16:15:26.837Z,7.10
2019-03-13T16:17:55.461Z,7.00
2019-03-13T16:20:24.038Z,7.00
2019-03-13T16:22:56.937Z,7.10
2019-03-13T16:25:25.573Z,7.10
2019-03-13T16:27:54.128Z,7.20
2019-03-13T16:30:25.774Z,7.10
2019-03-13T16:32:54.398Z,7.10
2019-03-13T16:35:26.216Z,7.10
2019-03-13T16:37:53.165Z,7.00
2019-03-13T16:40:21.807Z,7.10
2019-03-13T16:42:50.509Z,6.90
2019-03-13T16:45:20.598Z,6.90
2019-03-13T16:47:49.295Z,6.90
2019-03-13T16:50:29.127Z,6.90
2019-03-13T16:52:57.750Z,6.90
2019-03-13T16:55:26.387Z,7.00
2019-03-13T16:57:55.009Z,7.00
2019-03-13T17:00:30.424Z,6.90
2019-03-13T17:02:59.047Z,6.90
2019-03-13T17:05:27.711Z,7.00
2019-03-13T17:07:56.342Z,6.90
2019-03-13T17:10:26.233Z,6.90
2019-03-13T17:12:54.804Z,6.80
2019-03-13T17:15:24.981Z,6.70
2019-03-13T17:17:54.379Z,6.70
2019-03-13T17:20:30.484Z,6.60
2019-03-13T17:22:59.037Z,6.50
2019-03-13T17:25:27.584Z,6.30
2019-03-13T17:27:56.159Z,6.30
2019-03-13T17:30:27.120Z,6.20
2019-03-13T17:32:55.689Z,6.10
2019-03-13T17:35:24.236Z,6.10
2019-03-13T17:37:52.887Z,6.00
2019-03-13T17:40:24.135Z,6.00
2019-03-13T17:42:52.778Z,6.10
2019-03-13T17:45:22.872Z,6.00
2019-03-13T17:47:51.512Z,6.00
2019-03-13T17:50:23.839Z,6.00
2019-03-13T17:52:52.474Z,6.10
2019-03-13T17:55:22.566Z,6.10
2019-03-13T17:57:51.663Z,6.10
2019-03-13T18:00:27.206Z,6.20
2019-03-13T18:02:55.821Z,6.10
2019-03-13T18:05:24.618Z,6.20
2019-03-13T18:07:53.325Z,6.20
2019-03-13T18:10:22.215Z,6.10
2019-03-13T18:12:51.163Z,6.20
2019-03-13T18:15:20.313Z,6.10
2019-03-13T18:17:49.155Z,6.10
2019-03-13T18:20:24.604Z,6.20
2019-03-13T18:22:53.390Z,6.20
2019-03-13T18:25:22.566Z,6.20
2019-03-13T18:27:51.566Z,6.10
2019-03-13T18:30:25.375Z,6.10
2019-03-13T18:32:54.197Z,6.10
2019-03-13T18:35:23.697Z,6.00
2019-03-13T18:37:52.490Z,6.10
2019-03-13T18:40:22.590Z,6.10
2019-03-13T18:42:51.814Z,6.20
2019-03-13T18:45:28.774Z,6.20
2019-03-13T18:47:58.253Z,6.20
2019-03-13T18:50:27.189Z,6.20
2019-03-13T18:52:56.093Z,6.10
2019-03-13T18:55:32.991Z,6.00
2019-03-13T18:58:02.192Z,6.10
2019-03-13T19:00:31.979Z,6.00
2019-03-13T19:03:01.140Z,6.00
2019-03-13T19:05:30.914Z,6.00
2019-03-13T19:07:59.732Z,6.00
2019-03-13T19:10:29.808Z,6.00
2019-03-13T19:12:58.318Z,5.90
2019-03-13T19:15:27.311Z,5.90
2019-03-13T19:17:55.954Z,5.80
2019-03-13T19:20:28.330Z,5.90
2019-03-13T19:22:56.984Z,6.00
2019-03-13T19:25:25.611Z,6.00
2019-03-13T19:27:54.188Z,6.10
2019-03-13T19:30:32.952Z,6.10
2019-03-13T19:33:01.827Z,6.00
2019-03-13T19:35:30.646Z,5.90
2019-03-13T19:38:09.973Z,5.80
2019-03-13T19:40:38.770Z,5.90
2019-03-13T19:43:07.346Z,5.70
2019-03-13T19:45:43.135Z,5.70
2019-03-13T19:48:11.775Z,5.60
2019-03-13T19:50:40.396Z,5.70
2019-03-13T19:53:09.249Z,5.80
2019-03-13T19:55:37.848Z,5.50
2019-03-13T19:58:06.567Z,5.40
2019-03-13T20:00:35.108Z,5.30
2019-03-13T20:03:06.097Z,5.30
2019-03-13T20:05:44.869Z,5.20
2019-03-13T20:08:05.006Z,5.10
2019-03-13T20:10:33.562Z,5.20
2019-03-13T20:13:02.134Z,5.30
2019-03-13T20:15:32.321Z,5.30
2019-03-13T20:18:00.962Z,5.40
2019-03-13T20:20:29.516Z,5.30
2019-03-13T20:23:03.938Z,5.50
2019-03-13T20:25:32.493Z,5.30
2019-03-13T20:28:01.069Z,5.30
2019-03-13T20:30:29.686Z,5.20
2019-03-13T20:32:58.266Z,5.30
2019-03-13T20:35:26.891Z,5.30
2019-03-13T20:37:55.462Z,5.30
2019-03-13T20:40:25.571Z,5.40
2019-03-13T20:42:54.154Z,5.50
2019-03-13T20:45:27.914Z,5.60
2019-03-13T20:47:56.629Z,5.70
2019-03-13T20:50:36.053Z,5.60
2019-03-13T20:52:55.541Z,5.60
2019-03-13T20:55:24.439Z,5.40
2019-03-13T20:57:53.005Z,5.30
2019-03-13T21:00:25.704Z,5.40
2019-03-13T21:02:57.918Z,5.20
2019-03-13T21:05:26.497Z,5.40
2019-03-13T21:07:55.412Z,5.30
2019-03-13T21:10:24.332Z,5.30
2019-03-13T21:12:52.982Z,5.40
2019-03-13T21:15:28.304Z,5.40
2019-03-13T21:17:57.049Z,5.40
2019-03-13T21:20:25.597Z,5.50
2019-03-13T21:22:54.240Z,5.40
2019-03-13T21:25:27.171Z,5.40
2019-03-13T21:27:55.750Z,5.40
2019-03-13T21:30:25.623Z,5.30
2019-03-13T21:32:54.457Z,5.50
2019-03-13T21:35:23.165Z,5.70
2019-03-13T21:37:52.061Z,5.80
2019-03-13T21:40:22.284Z,5.70
2019-03-13T21:42:54.158Z,5.70
2019-03-13T21:45:22.960Z,5.50
2019-03-13T21:47:51.268Z,5.50
2019-03-13T21:50:20.164Z,5.60
2019-03-13T21:52:48.732Z,5.70
2019-03-13T21:55:18.230Z,5.50
2019-03-13T21:57:46.804Z,5.50
2019-03-13T22:00:21.707Z,5.60
2019-03-13T22:02:50.288Z,5.50
2019-03-13T22:05:25.626Z,5.50
2019-03-13T22:07:49.318Z,5.30
2019-03-13T22:10:18.804Z,5.40
2019-03-13T22:12:47.376Z,5.30
2019-03-13T22:15:20.686Z,5.20
2019-03-13T22:17:49.261Z,5.20
2019-03-13T22:20:19.087Z,5.10
2019-03-13T22:22:47.632Z,5.10
2019-03-13T22:25:17.345Z,5.20
2019-03-13T22:27:45.893Z,5.20
2019-03-13T22:30:17.482Z,5.10
2019-03-13T22:32:46.028Z,5.00
2019-03-13T22:35:14.604Z,4.90
2019-03-13T22:37:43.152Z,4.90
2019-03-13T22:40:13.660Z,5.00
2019-03-13T22:42:42.391Z,5.00
2019-03-13T22:45:13.575Z,4.90
2019-03-13T22:47:43.284Z,5.00
2019-03-13T22:50:17.508Z,5.00
2019-03-13T22:52:46.058Z,4.80
2019-03-13T22:55:14.766Z,4.70
2019-03-13T22:57:43.322Z,4.90
2019-03-13T23:00:25.411Z,4.80
2019-03-13T23:02:54.396Z,4.90
2019-03-13T23:05:23.038Z,4.90
2019-03-13T23:07:51.598Z,4.90
2019-03-13T23:10:33.441Z,4.80
2019-03-13T23:13:02.841Z,4.90
2019-03-13T23:15:31.422Z,5.10
2019-03-13T23:17:59.969Z,5.10
2019-03-13T23:20:28.611Z,4.90
2019-03-13T23:22:57.161Z,4.90
2019-03-13T23:25:25.752Z,4.90
2019-03-13T23:27:54.289Z,4.90
2019-03-13T23:30:22.861Z,4.90
2019-03-13T23:32:51.690Z,4.90
2019-03-13T23:35:20.266Z,4.90
2019-03-13T23:37:48.815Z,5.10
2019-03-13T23:40:17.453Z,5.00
2019-03-13T23:42:46.006Z,5.10
2019-03-13T23:45:14.645Z,5.00
2019-03-13T23:47:43.209Z,4.90
2019-03-13T23:50:13.225Z,5.00
2019-03-13T23:52:41.838Z,4.90
2019-03-13T23:55:10.965Z,5.00
2019-03-13T23:57:39.563Z,5.00
